createdAt,value
2018-03-23T00:00:51.255Z,3.70
2018-03-23T00:03:18.731Z,3.57
2018-03-23T00:05:46.210Z,3.20
2018-03-23T00:08:13.721Z,3.67
2018-03-23T00:10:41.211Z,3.97
2018-03-23T00:13:08.691Z,3.80
2018-03-23T00:15:36.253Z,3.70
2018-03-23T00:18:03.704Z,3.73
2018-03-23T00:20:31.178Z,3.77
2018-03-23T00:22:58.699Z,3.73
2018-03-23T00:25:26.206Z,3.67
2018-03-23T00:27:53.682Z,3.63
2018-03-23T00:30:21.205Z,4.10
2018-03-23T00:32:48.698Z,3.73
2018-03-23T00:35:16.179Z,3.57
2018-03-23T00:37:43.696Z,3.40
2018-03-23T00:40:11.183Z,3.47
2018-03-23T00:42:38.695Z,3.73
2018-03-23T00:45:06.207Z,3.10
2018-03-23T00:47:33.686Z,3.60
2018-03-23T00:50:01.183Z,3.50
2018-03-23T00:52:28.695Z,3.53
2018-03-23T00:54:56.195Z,3.73
2018-03-23T00:57:26.606Z,3.47
2018-03-23T00:59:54.113Z,3.20
2018-03-23T01:02:21.607Z,3.57
2018-03-23T01:04:49.090Z,3.50
2018-03-23T01:07:16.589Z,3.57
2018-03-23T01:09:44.079Z,3.50
2018-03-23T01:12:11.583Z,3.30
2018-03-23T01:14:39.089Z,3.40
2018-03-23T01:17:06.568Z,4.07
2018-03-23T01:19:34.055Z,3.37
2018-03-23T01:22:01.575Z,3.13
2018-03-23T01:24:29.051Z,2.87
2018-03-23T01:26:56.539Z,3.47
2018-03-23T01:29:24.068Z,3.77
2018-03-23T01:31:51.547Z,3.40
2018-03-23T01:34:19.038Z,3.30
2018-03-23T01:36:46.547Z,3.13
2018-03-23T01:39:14.027Z,3.27
2018-03-23T01:41:41.516Z,3.53
2018-03-23T01:44:09.026Z,3.63
2018-03-23T01:46:36.498Z,3.20
2018-03-23T01:49:03.988Z,3.90
2018-03-23T01:51:31.511Z,3.63
2018-03-23T01:53:58.986Z,3.40
2018-03-23T01:56:26.480Z,3.27
2018-03-23T01:58:54.023Z,3.50
2018-03-23T02:01:21.530Z,3.50
2018-03-23T02:03:49.013Z,3.63
2018-03-23T02:06:16.530Z,3.40
2018-03-23T02:08:44.018Z,3.30
2018-03-23T02:11:11.489Z,3.47
2018-03-23T02:13:38.997Z,3.40
2018-03-23T02:16:06.481Z,3.77
2018-03-23T02:18:33.957Z,3.90
2018-03-23T02:21:01.462Z,3.57
2018-03-23T02:23:28.946Z,3.50
2018-03-23T02:25:56.454Z,3.50
2018-03-23T02:28:23.987Z,3.60
2018-03-23T02:30:51.496Z,3.30
2018-03-23T02:33:18.979Z,3.43
2018-03-23T02:35:46.486Z,3.57
2018-03-23T02:38:13.970Z,3.53
2018-03-23T02:40:41.494Z,3.10
2018-03-23T02:43:09.004Z,3.47
2018-03-23T02:45:36.487Z,3.37
2018-03-23T02:48:03.971Z,3.43
2018-03-23T02:50:31.505Z,3.27
2018-03-23T02:52:58.994Z,3.47
2018-03-23T02:55:26.472Z,3.10
2018-03-23T02:57:53.981Z,3.30
2018-03-23T03:00:21.483Z,2.87
2018-03-23T03:02:48.958Z,3.20
2018-03-23T03:05:16.463Z,3.40
2018-03-23T03:07:43.942Z,3.53
2018-03-23T03:10:11.413Z,3.40
2018-03-23T03:12:39.256Z,3.60
2018-03-23T03:15:06.730Z,3.00
2018-03-23T03:17:34.348Z,3.50
2018-03-23T03:20:01.864Z,3.40
2018-03-23T03:22:29.347Z,3.30
2018-03-23T03:24:56.826Z,3.47
2018-03-23T03:27:24.326Z,3.20
2018-03-23T03:29:51.810Z,2.97
2018-03-23T03:32:19.298Z,3.00
2018-03-23T03:34:46.803Z,2.90
2018-03-23T03:37:14.306Z,3.20
2018-03-23T03:39:41.791Z,3.40
2018-03-23T03:42:09.297Z,3.07
2018-03-23T03:44:36.779Z,3.03
2018-03-23T03:47:04.267Z,3.00
2018-03-23T03:49:31.777Z,3.30
2018-03-23T03:51:59.259Z,2.77
2018-03-23T03:54:26.734Z,2.97
2018-03-23T03:56:54.233Z,3.10
2018-03-23T03:59:21.738Z,3.43
2018-03-23T04:01:49.214Z,3.10
2018-03-23T04:04:16.730Z,3.23
2018-03-23T04:06:44.207Z,2.93
2018-03-23T04:09:11.710Z,3.23
2018-03-23T04:11:39.216Z,3.00
2018-03-23T04:14:06.711Z,3.28
2018-03-23T04:16:34.207Z,3.43
2018-03-23T04:19:01.717Z,3.45
2018-03-23T04:21:29.193Z,3.10
2018-03-23T04:23:56.669Z,3.00
2018-03-23T04:26:24.170Z,3.10
2018-03-23T04:28:51.650Z,3.23
2018-03-23T04:31:19.122Z,3.03
2018-03-23T04:33:46.632Z,2.90
2018-03-23T04:36:14.105Z,3.13
2018-03-23T04:38:41.586Z,2.67
2018-03-23T04:41:09.624Z,2.97
2018-03-23T04:43:37.121Z,3.47
2018-03-23T04:46:04.610Z,3.27
2018-03-23T04:48:32.109Z,2.60
2018-03-23T04:50:59.589Z,3.67
2018-03-23T04:53:27.057Z,3.23
2018-03-23T04:55:54.553Z,3.17
2018-03-23T04:58:22.346Z,2.87
2018-03-23T05:00:49.852Z,2.97
2018-03-23T05:03:17.349Z,3.10
2018-03-23T05:05:44.841Z,3.10
2018-03-23T05:08:12.317Z,2.57
2018-03-23T05:10:39.853Z,2.87
2018-03-23T05:13:07.334Z,3.00
2018-03-23T05:15:34.818Z,3.07
2018-03-23T05:18:02.326Z,3.10
2018-03-23T05:20:29.802Z,3.17
2018-03-23T05:22:57.290Z,2.77
2018-03-23T05:25:24.792Z,3.07
2018-03-23T05:27:52.278Z,3.00
2018-03-23T05:30:19.762Z,2.70
2018-03-23T05:32:47.272Z,2.80
2018-03-23T05:35:14.753Z,3.17
2018-03-23T05:37:42.225Z,2.80
2018-03-23T05:40:09.740Z,2.67
2018-03-23T05:42:37.218Z,2.90
2018-03-23T05:45:04.698Z,2.70
2018-03-23T05:47:32.206Z,2.67
2018-03-23T05:49:59.694Z,2.90
2018-03-23T05:52:27.198Z,2.93
2018-03-23T05:54:54.701Z,3.20
2018-03-23T05:57:22.203Z,2.80
2018-03-23T05:59:49.707Z,3.17
2018-03-23T06:02:17.343Z,3.07
2018-03-23T06:04:44.832Z,3.10
2018-03-23T06:07:12.315Z,2.67
2018-03-23T06:09:40.387Z,3.03
2018-03-23T06:12:07.911Z,2.47
2018-03-23T06:14:35.394Z,2.43
2018-03-23T06:17:02.902Z,2.90
2018-03-23T06:19:30.377Z,2.60
2018-03-23T06:21:57.854Z,2.40
2018-03-23T06:24:25.386Z,2.60
2018-03-23T06:26:52.857Z,2.77
2018-03-23T06:29:20.332Z,3.10
2018-03-23T06:31:47.837Z,2.43
2018-03-23T06:34:15.318Z,2.80
2018-03-23T06:36:42.789Z,2.67
2018-03-23T06:39:10.298Z,3.00
2018-03-23T06:41:37.770Z,2.77
2018-03-23T06:44:05.245Z,3.03
2018-03-23T06:46:32.745Z,2.60
2018-03-23T06:49:00.238Z,2.83
2018-03-23T06:51:27.721Z,2.43
2018-03-23T06:53:55.258Z,2.90
2018-03-23T06:56:22.759Z,2.80
2018-03-23T06:58:50.239Z,2.77
2018-03-23T07:01:17.767Z,2.50
2018-03-23T07:03:46.108Z,2.80
2018-03-23T07:06:13.612Z,2.30
2018-03-23T07:08:41.123Z,2.60
2018-03-23T07:11:08.627Z,2.20
2018-03-23T07:13:36.107Z,2.80
2018-03-23T07:16:03.626Z,2.80
2018-03-23T07:18:31.120Z,2.83
2018-03-23T07:20:58.599Z,2.57
2018-03-23T07:23:26.098Z,2.70
2018-03-23T07:25:53.603Z,2.60
2018-03-23T07:28:21.082Z,2.73
2018-03-23T07:30:48.591Z,2.60
2018-03-23T07:33:16.084Z,2.60
2018-03-23T07:35:43.571Z,2.83
2018-03-23T07:38:11.087Z,2.67
2018-03-23T07:40:38.561Z,2.60
2018-03-23T07:43:06.032Z,2.90
2018-03-23T07:45:33.543Z,2.87
2018-03-23T07:48:01.018Z,2.80
2018-03-23T07:50:28.511Z,2.70
2018-03-23T07:52:56.031Z,2.70
2018-03-23T07:55:23.506Z,2.60
2018-03-23T07:57:50.981Z,2.60
2018-03-23T08:00:18.656Z,2.90
2018-03-23T08:02:46.140Z,2.80
2018-03-23T08:05:13.624Z,3.00
2018-03-23T08:07:41.158Z,2.90
2018-03-23T08:10:08.638Z,3.00
2018-03-23T08:12:36.109Z,2.53
2018-03-23T08:15:03.618Z,2.50
2018-03-23T08:17:31.095Z,2.60
2018-03-23T08:19:58.604Z,2.97
2018-03-23T08:22:26.102Z,2.87
2018-03-23T08:24:53.575Z,2.70
2018-03-23T08:27:21.059Z,3.13
2018-03-23T08:29:48.586Z,2.80
2018-03-23T08:32:16.070Z,3.10
2018-03-23T08:34:43.544Z,2.57
2018-03-23T08:37:11.054Z,2.70
2018-03-23T08:39:38.542Z,3.07
2018-03-23T08:42:06.022Z,2.77
2018-03-23T08:44:33.556Z,2.70
2018-03-23T08:47:01.032Z,2.90
2018-03-23T08:49:28.539Z,3.20
2018-03-23T08:51:56.055Z,3.10
2018-03-23T08:54:23.530Z,5.53
2018-03-23T08:56:51.007Z,4.30
2018-03-23T08:59:18.528Z,4.10
2018-03-23T09:01:46.012Z,3.90
2018-03-23T09:04:13.524Z,4.00
2018-03-23T09:06:41.039Z,4.00
2018-03-23T09:09:08.534Z,4.10
2018-03-23T09:11:36.018Z,3.67
2018-03-23T09:14:03.527Z,4.10
2018-03-23T09:16:31.060Z,3.97
2018-03-23T09:18:58.534Z,3.40
2018-03-23T09:21:26.032Z,4.10
2018-03-23T09:23:53.509Z,3.77
2018-03-23T09:26:20.994Z,3.67
2018-03-23T09:28:48.506Z,3.87
2018-03-23T09:31:15.990Z,3.80
2018-03-23T09:33:43.477Z,3.70
2018-03-23T09:36:10.987Z,3.73
2018-03-23T09:38:38.476Z,3.80
2018-03-23T09:41:05.951Z,3.63
2018-03-23T09:43:33.453Z,3.50
2018-03-23T09:46:01.112Z,3.40
2018-03-23T09:48:28.592Z,3.80
2018-03-23T09:50:56.103Z,3.77
2018-03-23T09:53:23.578Z,3.73
2018-03-23T09:55:51.055Z,3.97
2018-03-23T09:58:25.026Z,3.70
2018-03-23T10:00:52.498Z,3.70
2018-03-23T10:03:19.971Z,3.80
2018-03-23T10:05:47.480Z,3.63
2018-03-23T10:08:14.959Z,3.57
2018-03-23T10:10:42.451Z,3.60
2018-03-23T10:13:09.982Z,3.47
2018-03-23T10:15:37.445Z,3.40
2018-03-23T10:18:04.927Z,3.50
2018-03-23T10:20:32.435Z,3.33
2018-03-23T10:22:59.914Z,3.50
2018-03-23T10:25:27.490Z,3.40
2018-03-23T10:27:54.995Z,3.37
2018-03-23T10:30:22.487Z,3.40
2018-03-23T10:32:49.975Z,3.77
2018-03-23T10:35:17.502Z,3.93
2018-03-23T10:37:44.978Z,3.47
2018-03-23T10:40:12.454Z,3.57
2018-03-23T10:42:39.962Z,3.83
2018-03-23T10:45:07.461Z,3.33
2018-03-23T10:47:34.934Z,3.50
2018-03-23T10:50:02.433Z,3.77
2018-03-23T10:52:29.935Z,3.37
2018-03-23T10:54:57.422Z,3.10
2018-03-23T10:57:24.930Z,3.80
2018-03-23T10:59:52.405Z,3.90
2018-03-23T11:05:24.128Z,3.70
2018-03-23T11:07:51.634Z,3.23
2018-03-23T11:10:19.114Z,3.60
2018-03-23T11:12:46.636Z,3.73
2018-03-23T11:15:14.149Z,3.67
2018-03-23T11:17:41.626Z,3.70
2018-03-23T11:20:09.101Z,3.53
2018-03-23T11:22:36.609Z,3.50
2018-03-23T11:25:04.085Z,3.37
2018-03-23T11:27:31.555Z,3.60
2018-03-23T11:29:59.068Z,3.73
2018-03-23T11:32:26.558Z,3.57
2018-03-23T11:34:54.032Z,3.20
2018-03-23T11:37:21.543Z,3.97
2018-03-23T11:39:49.031Z,3.53
2018-03-23T11:42:16.523Z,3.50
2018-03-23T11:44:44.028Z,3.50
2018-03-23T11:47:11.502Z,3.80
2018-03-23T11:49:38.980Z,3.60
2018-03-23T11:52:06.478Z,3.50
2018-03-23T11:54:33.993Z,3.30
2018-03-23T11:57:01.474Z,3.73
2018-03-23T11:59:28.990Z,3.63
2018-03-23T12:01:56.465Z,3.10
2018-03-23T12:04:23.969Z,3.37
2018-03-23T12:06:51.468Z,3.30
2018-03-23T12:09:18.951Z,3.53
2018-03-23T12:11:46.425Z,3.20
2018-03-23T12:14:13.969Z,3.20
2018-03-23T12:16:41.429Z,3.13
2018-03-23T12:19:08.915Z,3.10
2018-03-23T12:21:36.437Z,3.53
2018-03-23T12:24:04.925Z,3.50
2018-03-23T12:26:32.397Z,3.00
2018-03-23T12:28:59.911Z,3.00
2018-03-23T12:31:27.406Z,3.00
2018-03-23T12:33:55.887Z,3.33
2018-03-23T12:36:23.396Z,3.37
2018-03-23T12:38:50.882Z,3.40
2018-03-23T12:41:18.362Z,3.60
2018-03-23T12:43:45.862Z,3.40
2018-03-23T12:46:13.350Z,3.30
2018-03-23T12:48:40.826Z,3.50
2018-03-23T12:51:08.337Z,3.77
2018-03-23T12:53:35.809Z,3.70
2018-03-23T12:56:03.305Z,3.30
2018-03-23T12:58:30.814Z,3.23
2018-03-23T13:00:58.285Z,3.37
2018-03-23T13:03:25.762Z,3.30
2018-03-23T13:05:53.260Z,3.57
2018-03-23T13:08:20.730Z,3.70
2018-03-23T13:10:48.198Z,3.53
2018-03-23T13:13:15.697Z,3.80
2018-03-23T13:15:43.174Z,3.40
2018-03-23T13:18:10.654Z,3.57
2018-03-23T13:20:38.153Z,3.87
2018-03-23T13:23:05.625Z,3.97
2018-03-23T13:25:33.107Z,4.10
2018-03-23T13:28:00.610Z,4.60
2018-03-23T13:30:28.110Z,4.47
2018-03-23T13:32:55.594Z,4.00
2018-03-23T13:35:23.112Z,3.50
2018-03-23T13:37:50.604Z,4.13
2018-03-23T13:40:18.091Z,4.00
2018-03-23T13:42:45.600Z,4.10
2018-03-23T13:45:13.081Z,4.47
2018-03-23T13:47:40.549Z,4.33
2018-03-23T13:50:08.090Z,4.53
2018-03-23T13:52:35.559Z,4.90
2018-03-23T13:55:03.039Z,5.10
2018-03-23T13:57:30.556Z,5.50
2018-03-23T13:59:58.874Z,5.23
2018-03-23T14:02:26.419Z,4.93
2018-03-23T14:04:53.902Z,5.80
2018-03-23T14:07:21.378Z,5.40
2018-03-23T14:09:48.875Z,5.27
2018-03-23T14:12:16.395Z,5.90
2018-03-23T14:14:43.882Z,5.53
2018-03-23T14:17:11.366Z,5.77
2018-03-23T14:19:38.919Z,6.13
2018-03-23T14:22:06.413Z,5.83
2018-03-23T14:24:33.886Z,5.30
2018-03-23T14:27:01.393Z,6.03
2018-03-23T14:29:28.870Z,5.43
2018-03-23T14:31:56.363Z,5.83
2018-03-23T14:34:23.875Z,6.13
2018-03-23T14:36:51.350Z,5.80
2018-03-23T14:39:18.830Z,6.43
2018-03-23T14:41:46.346Z,6.23
2018-03-23T14:44:13.836Z,6.30
2018-03-23T14:46:41.386Z,6.83
2018-03-23T14:49:08.869Z,6.17
2018-03-23T14:51:36.358Z,6.47
2018-03-23T14:54:03.837Z,6.00
2018-03-23T14:56:31.342Z,5.80
2018-03-23T14:59:04.377Z,6.20
2018-03-23T15:01:31.883Z,6.23
2018-03-23T15:03:59.362Z,5.83
2018-03-23T15:06:26.858Z,6.53
2018-03-23T15:08:54.366Z,6.47
2018-03-23T15:11:21.837Z,6.40
2018-03-23T15:13:49.338Z,6.50
2018-03-23T15:16:16.863Z,6.67
2018-03-23T15:18:44.351Z,6.20
2018-03-23T15:21:11.831Z,6.20
2018-03-23T15:23:39.333Z,6.57
2018-03-23T15:26:06.823Z,6.37
2018-03-23T15:28:34.310Z,6.20
2018-03-23T15:31:01.818Z,6.07
2018-03-23T15:33:29.362Z,6.17
2018-03-23T15:35:56.851Z,6.40
2018-03-23T15:38:24.656Z,6.77
2018-03-23T15:40:52.218Z,6.27
2018-03-23T15:43:20.067Z,6.67
2018-03-23T15:45:47.606Z,6.70
2018-03-23T15:48:15.117Z,6.13
2018-03-23T15:50:42.590Z,6.07
2018-03-23T15:53:10.328Z,6.23
2018-03-23T15:55:37.811Z,6.10
2018-03-23T15:58:05.294Z,6.10
2018-03-23T16:00:32.811Z,6.30
2018-03-23T16:03:00.410Z,6.30
2018-03-23T16:05:27.881Z,6.07
2018-03-23T16:07:55.481Z,6.40
2018-03-23T16:10:23.007Z,6.03
2018-03-23T16:12:50.656Z,5.77
2018-03-23T16:15:18.238Z,6.43
2018-03-23T16:17:45.834Z,6.73
2018-03-23T16:20:13.499Z,6.10
2018-03-23T16:22:41.162Z,6.67
2018-03-23T16:25:08.666Z,6.03
2018-03-23T16:27:36.228Z,6.60
2018-03-23T16:30:03.930Z,5.50
2018-03-23T16:32:31.475Z,6.77
2018-03-23T16:34:58.961Z,6.93
2018-03-23T16:37:26.470Z,6.27
2018-03-23T16:39:54.088Z,5.53
2018-03-23T16:42:21.605Z,5.80
2018-03-23T16:44:49.123Z,6.33
2018-03-23T16:47:16.627Z,6.07
2018-03-23T16:49:44.116Z,6.30
2018-03-23T16:52:11.622Z,5.97
2018-03-23T16:54:39.117Z,6.43
2018-03-23T16:57:06.601Z,6.73
2018-03-23T16:59:34.106Z,6.40
2018-03-23T17:02:01.595Z,6.50
2018-03-23T17:04:29.130Z,7.30
2018-03-23T17:06:56.664Z,6.37
2018-03-23T17:09:24.146Z,6.37
2018-03-23T17:11:51.631Z,6.07
2018-03-23T17:14:19.142Z,6.13
2018-03-23T17:16:46.627Z,5.77
2018-03-23T17:19:14.106Z,6.00
2018-03-23T17:21:41.665Z,6.37
2018-03-23T17:24:09.142Z,5.70
2018-03-23T17:26:36.628Z,6.13
2018-03-23T17:29:04.143Z,6.70
2018-03-23T17:31:31.622Z,6.00
2018-03-23T17:33:59.098Z,5.83
2018-03-23T17:36:26.612Z,6.20
2018-03-23T17:38:54.171Z,6.23
2018-03-23T17:41:21.659Z,6.07
2018-03-23T17:43:49.172Z,6.30
2018-03-23T17:46:16.646Z,5.90
2018-03-23T17:48:44.125Z,6.07
2018-03-23T17:51:11.638Z,6.00
2018-03-23T17:53:39.110Z,6.23
2018-03-23T17:56:06.623Z,6.17
2018-03-23T17:58:34.143Z,6.17
2018-03-23T18:01:01.627Z,5.63
2018-03-23T18:03:29.109Z,5.53
2018-03-23T18:05:56.627Z,6.40
2018-03-23T18:08:24.115Z,5.67
2018-03-23T18:10:51.599Z,5.73
2018-03-23T18:13:19.110Z,6.10
2018-03-23T18:15:46.600Z,6.03
2018-03-23T18:18:14.087Z,5.60
2018-03-23T18:20:41.611Z,5.90
2018-03-23T18:23:09.116Z,5.73
2018-03-23T18:25:36.884Z,5.90
2018-03-23T18:28:04.393Z,6.30
2018-03-23T18:30:31.981Z,5.90
2018-03-23T18:32:59.590Z,6.20
2018-03-23T18:35:27.222Z,6.00
2018-03-23T18:37:54.826Z,6.33
2018-03-23T18:40:22.425Z,6.50
2018-03-23T18:42:50.088Z,6.47
2018-03-23T18:45:17.640Z,5.77
2018-03-23T18:47:45.112Z,5.50
2018-03-23T18:50:12.628Z,6.33
2018-03-23T18:52:40.111Z,5.73
2018-03-23T18:55:07.625Z,5.63
2018-03-23T18:57:35.129Z,6.33
2018-03-23T19:00:02.640Z,5.37
2018-03-23T19:02:30.114Z,5.70
2018-03-23T19:04:57.629Z,5.83
2018-03-23T19:07:25.143Z,5.20
2018-03-23T19:09:52.640Z,5.57
2018-03-23T19:12:20.349Z,5.67
2018-03-23T19:14:47.824Z,5.40
2018-03-23T19:17:15.448Z,5.67
2018-03-23T19:19:43.004Z,6.17
2018-03-23T19:22:10.492Z,6.13
2018-03-23T19:24:37.971Z,6.40
2018-03-23T19:27:05.478Z,6.53
2018-03-23T19:29:32.963Z,5.83
2018-03-23T19:32:00.443Z,6.13
2018-03-23T19:34:27.948Z,5.80
2018-03-23T19:36:55.426Z,5.73
2018-03-23T19:39:22.918Z,5.93
2018-03-23T19:41:50.430Z,5.90
2018-03-23T19:44:17.919Z,6.20
2018-03-23T19:46:45.414Z,6.27
2018-03-23T19:49:12.955Z,6.20
2018-03-23T19:51:40.609Z,6.50
2018-03-23T19:54:08.111Z,5.73
2018-03-23T19:56:35.620Z,6.53
2018-03-23T19:59:03.260Z,6.10
2018-03-23T20:01:30.766Z,5.70
2018-03-23T20:03:58.281Z,6.20
2018-03-23T20:06:26.676Z,5.87
2018-03-23T20:08:54.210Z,6.20
2018-03-23T20:11:21.873Z,6.73
2018-03-23T20:13:55.062Z,6.03
2018-03-23T20:16:22.730Z,6.23
2018-03-23T20:18:50.222Z,5.73
2018-03-23T20:21:17.839Z,6.00
2018-03-23T20:23:45.341Z,7.13
2018-03-23T20:26:12.949Z,6.40
2018-03-23T20:28:40.899Z,6.83
2018-03-23T20:31:08.403Z,6.27
2018-03-23T20:33:35.887Z,7.00
2018-03-23T20:36:03.650Z,7.30
2018-03-23T20:38:31.183Z,6.30
2018-03-23T20:40:58.666Z,7.20
2018-03-23T20:43:26.154Z,6.33
2018-03-23T20:45:53.670Z,7.57
2018-03-23T20:48:21.154Z,7.50
2018-03-23T20:50:48.634Z,6.93
2018-03-23T20:53:16.176Z,6.83
2018-03-23T20:55:43.690Z,6.80
2018-03-23T20:58:11.181Z,7.53
2018-03-23T21:00:38.691Z,7.00
2018-03-23T21:03:06.206Z,7.57
2018-03-23T21:05:33.746Z,7.17
2018-03-23T21:08:01.294Z,7.07
2018-03-23T21:10:28.773Z,7.20
2018-03-23T21:12:56.254Z,7.60
2018-03-23T21:15:23.769Z,7.27
2018-03-23T21:17:51.287Z,7.23
2018-03-23T21:20:18.784Z,7.27
2018-03-23T21:22:46.303Z,6.87
2018-03-23T21:25:13.794Z,6.70
2018-03-23T21:27:41.269Z,7.83
2018-03-23T21:30:08.792Z,7.33
2018-03-23T21:32:36.404Z,7.97
2018-03-23T21:35:03.923Z,7.20
2018-03-23T21:37:31.690Z,7.07
2018-03-23T21:39:59.187Z,8.20
2018-03-23T21:42:26.683Z,7.90
2018-03-23T21:44:54.332Z,7.67
2018-03-23T21:47:21.827Z,7.80
2018-03-23T21:49:49.326Z,7.43
2018-03-23T21:52:16.834Z,7.90
2018-03-23T21:54:44.327Z,7.67
2018-03-23T21:57:11.815Z,7.97
2018-03-23T21:59:39.335Z,8.37
2018-03-23T22:02:06.814Z,7.90
2018-03-23T22:04:34.299Z,9.07
2018-03-23T22:07:01.814Z,7.77
2018-03-23T22:09:29.328Z,8.50
2018-03-23T22:11:56.818Z,7.73
2018-03-23T22:14:25.088Z,8.67
2018-03-23T22:16:52.575Z,7.37
2018-03-23T22:19:20.076Z,8.07
2018-03-23T22:21:47.623Z,8.07
2018-03-23T22:24:15.106Z,8.17
2018-03-23T22:26:42.598Z,8.50
2018-03-23T22:29:10.119Z,7.97
2018-03-23T22:31:37.606Z,8.30
2018-03-23T22:34:05.091Z,8.47
2018-03-23T22:36:32.638Z,8.20
2018-03-23T22:39:00.130Z,8.80
2018-03-23T22:41:27.623Z,8.77
2018-03-23T22:43:55.133Z,8.40
2018-03-23T22:46:22.618Z,8.33
2018-03-23T22:48:50.108Z,8.13
2018-03-23T22:51:17.617Z,8.93
2018-03-23T22:53:45.111Z,7.57
2018-03-23T22:56:12.621Z,8.27
2018-03-23T22:58:40.140Z,7.97
2018-03-23T23:01:07.640Z,7.83
2018-03-23T23:03:35.126Z,8.00
2018-03-23T23:06:02.647Z,7.97
2018-03-23T23:08:30.138Z,8.30
2018-03-23T23:10:57.622Z,8.60
2018-03-23T23:13:25.135Z,9.07
2018-03-23T23:15:52.659Z,8.67
2018-03-23T23:18:20.167Z,8.33
2018-03-23T23:20:48.301Z,8.10
2018-03-23T23:23:15.778Z,7.53
2018-03-23T23:25:43.259Z,8.37
2018-03-23T23:28:10.775Z,8.53
2018-03-23T23:30:38.270Z,8.37
2018-03-23T23:33:05.763Z,8.23
2018-03-23T23:35:33.282Z,8.30
2018-03-23T23:38:00.780Z,7.97
2018-03-23T23:40:28.304Z,8.53
2018-03-23T23:42:55.824Z,8.13
2018-03-23T23:45:23.319Z,8.20
2018-03-23T23:47:50.816Z,8.50
2018-03-23T23:50:18.331Z,8.37
2018-03-23T23:52:45.835Z,8.20
2018-03-23T23:55:13.319Z,7.50
2018-03-23T23:57:40.837Z,8.40
